sensor_id;sensor_type;location;lat;lon;timestamp;P1;durP1;ratioP1;P2;durP2;ratioP2
16286;SDS011;8251;53.568;10.018;2024-03-06T00:02:05;14.33;;;8.13;;
16286;SDS011;8251;53.568;10.018;2024-03-06T00:04:32;15.50;;;6.67;;
16286;SDS011;8251;53.568;10.018;2024-03-06T00:07:00;13.07;;;7.50;;
16286;SDS011;8251;53.568;10.018;2024-03-06T00:09:28;16.10;;;8.07;;
16286;SDS011;8251;53.568;10.018;2024-03-06T00:11:55;14.10;;;7.47;;
16286;SDS011;8251;53.568;10.018;2024-03-06T00:14:22;13.37;;;6.80;;
16286;SDS011;8251;53.568;10.018;2024-03-06T00:16:49;9.47;;;6.03;;
16286;SDS011;8251;53.568;10.018;2024-03-06T00:19:16;15.07;;;6.00;;
16286;SDS011;8251;53.568;10.018;2024-03-06T00:21:43;10.60;;;5.80;;
16286;SDS011;8251;53.568;10.018;2024-03-06T00:24:12;10.30;;;5.33;;
16286;SDS011;8251;53.568;10.018;2024-03-06T00:26:40;9.13;;;5.30;;
16286;SDS011;8251;53.568;10.018;2024-03-06T00:29:08;14.17;;;6.03;;
16286;SDS011;8251;53.568;10.018;2024-03-06T00:31:35;10.67;;;6.07;;
16286;SDS011;8251;53.568;10.018;2024-03-06T00:34:02;10.90;;;5.93;;
16286;SDS011;8251;53.568;10.018;2024-03-06T00:36:29;10.10;;;5.63;;
16286;SDS011;8251;53.568;10.018;2024-03-06T00:38:56;8.43;;;5.10;;
16286;SDS011;8251;53.568;10.018;2024-03-06T00:41:26;9.30;;;5.50;;
16286;SDS011;8251;53.568;10.018;2024-03-06T00:43:53;9.57;;;5.40;;
16286;SDS011;8251;53.568;10.018;2024-03-06T00:46:20;12.30;;;5.57;;
16286;SDS011;8251;53.568;10.018;2024-03-06T00:48:47;8.50;;;5.30;;
16286;SDS011;8251;53.568;10.018;2024-03-06T00:51:15;7.90;;;5.27;;
16286;SDS011;8251;53.568;10.018;2024-03-06T00:53:48;13.33;;;5.03;;
16286;SDS011;8251;53.568;10.018;2024-03-06T00:56:15;7.97;;;5.10;;
16286;SDS011;8251;53.568;10.018;2024-03-06T00:58:45;8.27;;;4.40;;
16286;SDS011;8251;53.568;10.018;2024-03-06T01:01:13;6.80;;;4.33;;
16286;SDS011;8251;53.568;10.018;2024-03-06T01:03:41;10.97;;;4.60;;
16286;SDS011;8251;53.568;10.018;2024-03-06T01:06:11;10.33;;;5.37;;
16286;SDS011;8251;53.568;10.018;2024-03-06T01:08:43;8.80;;;5.30;;
16286;SDS011;8251;53.568;10.018;2024-03-06T01:11:11;7.77;;;5.27;;
16286;SDS011;8251;53.568;10.018;2024-03-06T01:13:41;8.07;;;5.33;;
16286;SDS011;8251;53.568;10.018;2024-03-06T01:16:14;10.00;;;5.30;;
16286;SDS011;8251;53.568;10.018;2024-03-06T01:18:41;8.00;;;5.10;;
16286;SDS011;8251;53.568;10.018;2024-03-06T01:21:10;11.03;;;4.87;;
16286;SDS011;8251;53.568;10.018;2024-03-06T01:23:37;9.53;;;5.13;;
16286;SDS011;8251;53.568;10.018;2024-03-06T01:26:04;8.53;;;5.53;;
16286;SDS011;8251;53.568;10.018;2024-03-06T01:28:34;11.57;;;5.47;;
16286;SDS011;8251;53.568;10.018;2024-03-06T01:31:05;8.57;;;5.20;;
16286;SDS011;8251;53.568;10.018;2024-03-06T01:33:35;7.23;;;5.00;;
16286;SDS011;8251;53.568;10.018;2024-03-06T01:36:02;11.57;;;5.73;;
16286;SDS011;8251;53.568;10.018;2024-03-06T01:38:32;10.13;;;5.50;;
16286;SDS011;8251;53.568;10.018;2024-03-06T01:41:06;8.93;;;5.07;;
16286;SDS011;8251;53.568;10.018;2024-03-06T01:43:37;10.23;;;4.63;;
16286;SDS011;8251;53.568;10.018;2024-03-06T01:46:10;9.10;;;5.23;;
16286;SDS011;8251;53.568;10.018;2024-03-06T01:48:37;8.57;;;5.60;;
16286;SDS011;8251;53.568;10.018;2024-03-06T01:51:08;8.40;;;5.03;;
16286;SDS011;8251;53.568;10.018;2024-03-06T01:53:39;8.27;;;4.87;;
16286;SDS011;8251;53.568;10.018;2024-03-06T01:56:08;6.30;;;4.97;;
16286;SDS011;8251;53.568;10.018;2024-03-06T01:58:37;11.70;;;5.10;;
16286;SDS011;8251;53.568;10.018;2024-03-06T02:01:09;6.83;;;4.43;;
16286;SDS011;8251;53.568;10.018;2024-03-06T02:03:44;9.17;;;5.30;;
16286;SDS011;8251;53.568;10.018;2024-03-06T02:06:12;8.07;;;5.20;;
16286;SDS011;8251;53.568;10.018;2024-03-06T02:08:44;8.23;;;5.47;;
16286;SDS011;8251;53.568;10.018;2024-03-06T02:11:11;8.50;;;4.70;;
16286;SDS011;8251;53.568;10.018;2024-03-06T02:13:43;8.37;;;5.20;;
16286;SDS011;8251;53.568;10.018;2024-03-06T02:16:17;8.40;;;5.13;;
16286;SDS011;8251;53.568;10.018;2024-03-06T02:18:51;6.93;;;5.00;;
16286;SDS011;8251;53.568;10.018;2024-03-06T02:21:23;9.97;;;4.73;;
16286;SDS011;8251;53.568;10.018;2024-03-06T02:23:52;10.60;;;4.93;;
16286;SDS011;8251;53.568;10.018;2024-03-06T02:26:25;7.90;;;4.73;;
16286;SDS011;8251;53.568;10.018;2024-03-06T02:31:45;7.80;;;5.03;;
16286;SDS011;8251;53.568;10.018;2024-03-06T02:34:14;9.33;;;5.13;;
16286;SDS011;8251;53.568;10.018;2024-03-06T02:36:43;7.73;;;4.77;;
16286;SDS011;8251;53.568;10.018;2024-03-06T02:39:10;8.37;;;5.50;;
16286;SDS011;8251;53.568;10.018;2024-03-06T02:41:40;8.43;;;4.97;;
16286;SDS011;8251;53.568;10.018;2024-03-06T02:44:10;10.83;;;5.00;;
16286;SDS011;8251;53.568;10.018;2024-03-06T02:46:37;9.77;;;5.53;;
16286;SDS011;8251;53.568;10.018;2024-03-06T02:49:04;11.50;;;4.90;;
16286;SDS011;8251;53.568;10.018;2024-03-06T02:51:53;11.03;;;6.73;;
16286;SDS011;8251;53.568;10.018;2024-03-06T02:54:20;9.00;;;4.80;;
16286;SDS011;8251;53.568;10.018;2024-03-06T02:56:47;6.60;;;4.67;;
16286;SDS011;8251;53.568;10.018;2024-03-06T02:59:14;7.60;;;4.47;;
16286;SDS011;8251;53.568;10.018;2024-03-06T03:01:40;6.60;;;4.50;;
16286;SDS011;8251;53.568;10.018;2024-03-06T03:04:07;8.27;;;4.60;;
16286;SDS011;8251;53.568;10.018;2024-03-06T03:06:36;7.77;;;3.90;;
16286;SDS011;8251;53.568;10.018;2024-03-06T03:09:04;6.40;;;4.03;;
16286;SDS011;8251;53.568;10.018;2024-03-06T03:11:31;8.13;;;3.87;;
16286;SDS011;8251;53.568;10.018;2024-03-06T03:13:59;12.50;;;4.47;;
16286;SDS011;8251;53.568;10.018;2024-03-06T03:16:26;6.53;;;4.33;;
16286;SDS011;8251;53.568;10.018;2024-03-06T03:18:56;13.57;;;3.80;;
16286;SDS011;8251;53.568;10.018;2024-03-06T03:21:25;8.27;;;3.83;;
16286;SDS011;8251;53.568;10.018;2024-03-06T03:23:52;7.53;;;4.00;;
16286;SDS011;8251;53.568;10.018;2024-03-06T03:26:20;5.27;;;4.13;;
16286;SDS011;8251;53.568;10.018;2024-03-06T03:28:48;5.73;;;4.00;;
16286;SDS011;8251;53.568;10.018;2024-03-06T03:31:14;6.30;;;3.73;;
16286;SDS011;8251;53.568;10.018;2024-03-06T03:33:41;7.53;;;3.73;;
16286;SDS011;8251;53.568;10.018;2024-03-06T03:36:08;4.90;;;3.63;;
16286;SDS011;8251;53.568;10.018;2024-03-06T03:38:35;6.77;;;4.77;;
16286;SDS011;8251;53.568;10.018;2024-03-06T03:41:06;6.53;;;4.20;;
16286;SDS011;8251;53.568;10.018;2024-03-06T03:43:35;10.23;;;5.07;;
16286;SDS011;8251;53.568;10.018;2024-03-06T03:46:02;8.37;;;4.57;;
16286;SDS011;8251;53.568;10.018;2024-03-06T03:48:31;5.43;;;3.90;;
16286;SDS011;8251;53.568;10.018;2024-03-06T03:51:00;9.77;;;4.13;;
16286;SDS011;8251;53.568;10.018;2024-03-06T03:53:28;5.80;;;4.17;;
16286;SDS011;8251;53.568;10.018;2024-03-06T03:55:55;10.47;;;4.57;;
16286;SDS011;8251;53.568;10.018;2024-03-06T03:58:22;8.87;;;5.07;;
16286;SDS011;8251;53.568;10.018;2024-03-06T04:00:50;8.57;;;4.53;;
16286;SDS011;8251;53.568;10.018;2024-03-06T04:03:18;6.53;;;4.40;;
16286;SDS011;8251;53.568;10.018;2024-03-06T04:05:45;8.33;;;4.00;;
16286;SDS011;8251;53.568;10.018;2024-03-06T04:08:12;8.13;;;4.47;;
16286;SDS011;8251;53.568;10.018;2024-03-06T04:10:41;8.20;;;4.27;;
16286;SDS011;8251;53.568;10.018;2024-03-06T04:13:10;5.57;;;4.77;;
16286;SDS011;8251;53.568;10.018;2024-03-06T04:15:37;8.30;;;4.60;;
16286;SDS011;8251;53.568;10.018;2024-03-06T04:18:05;6.50;;;4.33;;
16286;SDS011;8251;53.568;10.018;2024-03-06T04:20:32;10.00;;;5.47;;
16286;SDS011;8251;53.568;10.018;2024-03-06T04:23:06;6.67;;;3.93;;
16286;SDS011;8251;53.568;10.018;2024-03-06T04:25:33;7.37;;;3.93;;
16286;SDS011;8251;53.568;10.018;2024-03-06T04:28:00;6.63;;;4.00;;
16286;SDS011;8251;53.568;10.018;2024-03-06T04:30:27;9.90;;;4.50;;
16286;SDS011;8251;53.568;10.018;2024-03-06T04:32:54;10.83;;;5.30;;
16286;SDS011;8251;53.568;10.018;2024-03-06T04:35:22;9.17;;;4.00;;
16286;SDS011;8251;53.568;10.018;2024-03-06T04:37:49;7.60;;;4.23;;
16286;SDS011;8251;53.568;10.018;2024-03-06T04:40:16;6.43;;;3.83;;
16286;SDS011;8251;53.568;10.018;2024-03-06T04:42:46;7.10;;;4.23;;
16286;SDS011;8251;53.568;10.018;2024-03-06T04:45:14;7.93;;;3.93;;
16286;SDS011;8251;53.568;10.018;2024-03-06T04:47:42;6.00;;;4.10;;
16286;SDS011;8251;53.568;10.018;2024-03-06T04:50:09;7.40;;;4.10;;
16286;SDS011;8251;53.568;10.018;2024-03-06T04:52:38;6.17;;;4.20;;
16286;SDS011;8251;53.568;10.018;2024-03-06T04:55:06;10.73;;;4.63;;
16286;SDS011;8251;53.568;10.018;2024-03-06T04:57:36;7.97;;;4.07;;
16286;SDS011;8251;53.568;10.018;2024-03-06T05:00:03;6.83;;;4.50;;
16286;SDS011;8251;53.568;10.018;2024-03-06T05:02:31;9.27;;;4.40;;
16286;SDS011;8251;53.568;10.018;2024-03-06T05:04:59;6.57;;;3.87;;
16286;SDS011;8251;53.568;10.018;2024-03-06T05:07:29;12.10;;;3.80;;
16286;SDS011;8251;53.568;10.018;2024-03-06T05:09:57;4.93;;;3.73;;
16286;SDS011;8251;53.568;10.018;2024-03-06T05:12:25;7.07;;;4.10;;
16286;SDS011;8251;53.568;10.018;2024-03-06T05:14:53;5.83;;;3.83;;
16286;SDS011;8251;53.568;10.018;2024-03-06T05:17:20;6.47;;;4.07;;
16286;SDS011;8251;53.568;10.018;2024-03-06T05:19:48;5.67;;;3.80;;
16286;SDS011;8251;53.568;10.018;2024-03-06T05:22:16;6.77;;;3.53;;
16286;SDS011;8251;53.568;10.018;2024-03-06T05:24:43;6.73;;;4.37;;
16286;SDS011;8251;53.568;10.018;2024-03-06T05:27:11;7.70;;;3.53;;
16286;SDS011;8251;53.568;10.018;2024-03-06T05:29:42;7.73;;;4.17;;
16286;SDS011;8251;53.568;10.018;2024-03-06T05:32:08;7.70;;;4.03;;
16286;SDS011;8251;53.568;10.018;2024-03-06T05:34:35;5.43;;;3.57;;
16286;SDS011;8251;53.568;10.018;2024-03-06T05:37:02;7.67;;;4.33;;
16286;SDS011;8251;53.568;10.018;2024-03-06T05:39:30;7.47;;;3.70;;
16286;SDS011;8251;53.568;10.018;2024-03-06T05:41:59;8.03;;;4.10;;
16286;SDS011;8251;53.568;10.018;2024-03-06T05:44:29;8.20;;;4.00;;
16286;SDS011;8251;53.568;10.018;2024-03-06T05:46:56;10.33;;;4.40;;
16286;SDS011;8251;53.568;10.018;2024-03-06T05:49:23;7.37;;;3.60;;
16286;SDS011;8251;53.568;10.018;2024-03-06T05:51:51;6.40;;;4.13;;
16286;SDS011;8251;53.568;10.018;2024-03-06T05:54:19;9.30;;;4.43;;
16286;SDS011;8251;53.568;10.018;2024-03-06T05:56:47;6.40;;;4.33;;
16286;SDS011;8251;53.568;10.018;2024-03-06T05:59:15;6.57;;;4.40;;
16286;SDS011;8251;53.568;10.018;2024-03-06T06:01:43;7.23;;;4.23;;
16286;SDS011;8251;53.568;10.018;2024-03-06T06:04:10;8.43;;;4.43;;
16286;SDS011;8251;53.568;10.018;2024-03-06T06:06:38;10.73;;;4.53;;
16286;SDS011;8251;53.568;10.018;2024-03-06T06:09:05;11.00;;;4.30;;
16286;SDS011;8251;53.568;10.018;2024-03-06T06:11:38;7.13;;;4.20;;
16286;SDS011;8251;53.568;10.018;2024-03-06T06:14:05;7.43;;;4.17;;
16286;SDS011;8251;53.568;10.018;2024-03-06T06:16:35;6.40;;;3.80;;
16286;SDS011;8251;53.568;10.018;2024-03-06T06:19:04;10.77;;;4.67;;
16286;SDS011;8251;53.568;10.018;2024-03-06T06:21:31;13.50;;;5.37;;
16286;SDS011;8251;53.568;10.018;2024-03-06T06:24:00;8.03;;;5.03;;
16286;SDS011;8251;53.568;10.018;2024-03-06T06:26:28;7.20;;;4.60;;
16286;SDS011;8251;53.568;10.018;2024-03-06T06:28:55;6.83;;;4.40;;
16286;SDS011;8251;53.568;10.018;2024-03-06T06:31:22;8.87;;;4.77;;
16286;SDS011;8251;53.568;10.018;2024-03-06T06:33:51;6.90;;;4.83;;
16286;SDS011;8251;53.568;10.018;2024-03-06T06:36:19;6.00;;;4.30;;
16286;SDS011;8251;53.568;10.018;2024-03-06T06:38:46;7.13;;;4.33;;
16286;SDS011;8251;53.568;10.018;2024-03-06T06:41:13;6.60;;;4.07;;
16286;SDS011;8251;53.568;10.018;2024-03-06T06:43:40;6.63;;;4.40;;
16286;SDS011;8251;53.568;10.018;2024-03-06T06:46:07;8.57;;;4.47;;
16286;SDS011;8251;53.568;10.018;2024-03-06T06:48:34;10.47;;;4.47;;
16286;SDS011;8251;53.568;10.018;2024-03-06T06:51:01;6.83;;;3.80;;
16286;SDS011;8251;53.568;10.018;2024-03-06T06:53:30;6.40;;;4.30;;
16286;SDS011;8251;53.568;10.018;2024-03-06T06:55:56;7.37;;;4.63;;
16286;SDS011;8251;53.568;10.018;2024-03-06T06:58:23;6.87;;;4.23;;
16286;SDS011;8251;53.568;10.018;2024-03-06T07:00:52;5.70;;;4.20;;
16286;SDS011;8251;53.568;10.018;2024-03-06T07:03:19;5.83;;;3.87;;
16286;SDS011;8251;53.568;10.018;2024-03-06T07:05:48;6.70;;;4.40;;
16286;SDS011;8251;53.568;10.018;2024-03-06T07:08:15;8.93;;;5.60;;
16286;SDS011;8251;53.568;10.018;2024-03-06T07:10:44;6.63;;;4.63;;
16286;SDS011;8251;53.568;10.018;2024-03-06T07:13:11;9.03;;;4.60;;
16286;SDS011;8251;53.568;10.018;2024-03-06T07:15:38;6.73;;;4.33;;
16286;SDS011;8251;53.568;10.018;2024-03-06T07:18:05;7.53;;;4.07;;
16286;SDS011;8251;53.568;10.018;2024-03-06T07:20:32;6.00;;;4.30;;
16286;SDS011;8251;53.568;10.018;2024-03-06T07:22:59;13.27;;;5.00;;
16286;SDS011;8251;53.568;10.018;2024-03-06T07:25:26;5.50;;;3.90;;
16286;SDS011;8251;53.568;10.018;2024-03-06T07:27:54;5.23;;;4.10;;
16286;SDS011;8251;53.568;10.018;2024-03-06T07:30:21;7.07;;;4.20;;
16286;SDS011;8251;53.568;10.018;2024-03-06T07:32:48;8.13;;;4.53;;
16286;SDS011;8251;53.568;10.018;2024-03-06T07:35:15;6.73;;;3.90;;
16286;SDS011;8251;53.568;10.018;2024-03-06T07:37:44;7.57;;;4.23;;
16286;SDS011;8251;53.568;10.018;2024-03-06T07:40:11;7.23;;;3.63;;
16286;SDS011;8251;53.568;10.018;2024-03-06T07:42:38;7.20;;;4.53;;
16286;SDS011;8251;53.568;10.018;2024-03-06T07:45:06;6.87;;;3.93;;
16286;SDS011;8251;53.568;10.018;2024-03-06T07:47:34;7.67;;;4.67;;
16286;SDS011;8251;53.568;10.018;2024-03-06T07:50:02;10.13;;;3.87;;
16286;SDS011;8251;53.568;10.018;2024-03-06T07:52:30;5.83;;;3.53;;
16286;SDS011;8251;53.568;10.018;2024-03-06T07:54:58;5.67;;;4.47;;
16286;SDS011;8251;53.568;10.018;2024-03-06T07:57:24;6.77;;;3.73;;
16286;SDS011;8251;53.568;10.018;2024-03-06T07:59:51;4.40;;;3.60;;
16286;SDS011;8251;53.568;10.018;2024-03-06T08:02:24;5.53;;;3.67;;
16286;SDS011;8251;53.568;10.018;2024-03-06T08:04:53;5.60;;;3.70;;
16286;SDS011;8251;53.568;10.018;2024-03-06T08:07:20;6.17;;;4.00;;
16286;SDS011;8251;53.568;10.018;2024-03-06T08:09:47;8.50;;;4.13;;
16286;SDS011;8251;53.568;10.018;2024-03-06T08:12:14;6.03;;;3.70;;
16286;SDS011;8251;53.568;10.018;2024-03-06T08:14:41;9.77;;;3.57;;
16286;SDS011;8251;53.568;10.018;2024-03-06T08:17:08;7.43;;;3.77;;
16286;SDS011;8251;53.568;10.018;2024-03-06T08:19:36;6.03;;;3.67;;
16286;SDS011;8251;53.568;10.018;2024-03-06T08:22:03;5.40;;;3.30;;
16286;SDS011;8251;53.568;10.018;2024-03-06T08:24:30;5.50;;;3.50;;
16286;SDS011;8251;53.568;10.018;2024-03-06T08:26:57;4.27;;;3.07;;
16286;SDS011;8251;53.568;10.018;2024-03-06T08:29:25;6.17;;;3.47;;
16286;SDS011;8251;53.568;10.018;2024-03-06T08:31:52;6.47;;;3.40;;
16286;SDS011;8251;53.568;10.018;2024-03-06T08:34:23;5.90;;;3.87;;
16286;SDS011;8251;53.568;10.018;2024-03-06T08:36:51;5.00;;;3.70;;
16286;SDS011;8251;53.568;10.018;2024-03-06T08:39:18;4.83;;;3.43;;
16286;SDS011;8251;53.568;10.018;2024-03-06T08:41:45;4.83;;;3.50;;
16286;SDS011;8251;53.568;10.018;2024-03-06T08:44:12;5.23;;;3.37;;
16286;SDS011;8251;53.568;10.018;2024-03-06T08:46:39;5.90;;;3.37;;
16286;SDS011;8251;53.568;10.018;2024-03-06T08:49:06;5.87;;;3.03;;
16286;SDS011;8251;53.568;10.018;2024-03-06T08:51:33;3.63;;;2.90;;
16286;SDS011;8251;53.568;10.018;2024-03-06T08:54:02;5.70;;;3.67;;
16286;SDS011;8251;53.568;10.018;2024-03-06T08:56:29;3.90;;;3.23;;
16286;SDS011;8251;53.568;10.018;2024-03-06T08:58:56;5.53;;;2.97;;
16286;SDS011;8251;53.568;10.018;2024-03-06T09:01:22;4.60;;;2.87;;
16286;SDS011;8251;53.568;10.018;2024-03-06T09:03:50;4.30;;;3.27;;
16286;SDS011;8251;53.568;10.018;2024-03-06T09:06:17;5.13;;;3.23;;
16286;SDS011;8251;53.568;10.018;2024-03-06T09:08:44;4.73;;;3.27;;
16286;SDS011;8251;53.568;10.018;2024-03-06T09:11:13;6.07;;;3.83;;
16286;SDS011;8251;53.568;10.018;2024-03-06T09:13:40;7.43;;;3.47;;
16286;SDS011;8251;53.568;10.018;2024-03-06T09:16:08;7.30;;;3.80;;
16286;SDS011;8251;53.568;10.018;2024-03-06T09:18:35;8.00;;;3.43;;
16286;SDS011;8251;53.568;10.018;2024-03-06T09:21:01;6.50;;;3.77;;
16286;SDS011;8251;53.568;10.018;2024-03-06T09:23:28;8.70;;;3.57;;
16286;SDS011;8251;53.568;10.018;2024-03-06T09:25:57;6.67;;;3.37;;
16286;SDS011;8251;53.568;10.018;2024-03-06T09:28:25;9.53;;;3.90;;
16286;SDS011;8251;53.568;10.018;2024-03-06T09:30:52;7.40;;;3.60;;
16286;SDS011;8251;53.568;10.018;2024-03-06T09:33:19;11.83;;;4.50;;
16286;SDS011;8251;53.568;10.018;2024-03-06T09:35:46;7.27;;;4.27;;
16286;SDS011;8251;53.568;10.018;2024-03-06T09:38:13;17.13;;;4.43;;
16286;SDS011;8251;53.568;10.018;2024-03-06T09:40:40;9.97;;;3.57;;
16286;SDS011;8251;53.568;10.018;2024-03-06T09:43:07;7.67;;;4.17;;
16286;SDS011;8251;53.568;10.018;2024-03-06T09:45:36;7.20;;;4.67;;
16286;SDS011;8251;53.568;10.018;2024-03-06T09:48:03;7.23;;;5.07;;
16286;SDS011;8251;53.568;10.018;2024-03-06T09:50:34;9.77;;;4.57;;
16286;SDS011;8251;53.568;10.018;2024-03-06T09:53:06;6.27;;;4.30;;
16286;SDS011;8251;53.568;10.018;2024-03-06T09:55:36;6.57;;;4.40;;
16286;SDS011;8251;53.568;10.018;2024-03-06T09:58:03;6.13;;;4.60;;
16286;SDS011;8251;53.568;10.018;2024-03-06T10:00:30;6.10;;;3.70;;
16286;SDS011;8251;53.568;10.018;2024-03-06T10:03:01;7.53;;;4.33;;
16286;SDS011;8251;53.568;10.018;2024-03-06T10:05:30;6.67;;;4.77;;
16286;SDS011;8251;53.568;10.018;2024-03-06T10:08:00;7.90;;;4.13;;
16286;SDS011;8251;53.568;10.018;2024-03-06T10:10:29;12.57;;;6.03;;
16286;SDS011;8251;53.568;10.018;2024-03-06T10:12:56;9.03;;;4.80;;
16286;SDS011;8251;53.568;10.018;2024-03-06T10:15:25;6.17;;;4.83;;
16286;SDS011;8251;53.568;10.018;2024-03-06T10:18:00;9.67;;;4.97;;
16286;SDS011;8251;53.568;10.018;2024-03-06T10:20:38;8.50;;;4.40;;
16286;SDS011;8251;53.568;10.018;2024-03-06T10:23:05;7.17;;;4.67;;
16286;SDS011;8251;53.568;10.018;2024-03-06T10:25:33;9.07;;;5.07;;
16286;SDS011;8251;53.568;10.018;2024-03-06T10:28:04;8.80;;;5.03;;
16286;SDS011;8251;53.568;10.018;2024-03-06T10:30:32;7.97;;;5.00;;
16286;SDS011;8251;53.568;10.018;2024-03-06T10:33:01;10.53;;;4.83;;
16286;SDS011;8251;53.568;10.018;2024-03-06T10:35:29;7.77;;;4.73;;
16286;SDS011;8251;53.568;10.018;2024-03-06T10:37:56;8.53;;;5.13;;
16286;SDS011;8251;53.568;10.018;2024-03-06T10:40:27;6.13;;;4.40;;
16286;SDS011;8251;53.568;10.018;2024-03-06T10:42:57;10.67;;;5.03;;
16286;SDS011;8251;53.568;10.018;2024-03-06T10:45:26;7.20;;;4.70;;
16286;SDS011;8251;53.568;10.018;2024-03-06T10:48:00;5.90;;;4.40;;
16286;SDS011;8251;53.568;10.018;2024-03-06T10:50:31;7.40;;;4.67;;
16286;SDS011;8251;53.568;10.018;2024-03-06T10:52:59;8.33;;;4.57;;
16286;SDS011;8251;53.568;10.018;2024-03-06T10:55:27;7.83;;;5.43;;
16286;SDS011;8251;53.568;10.018;2024-03-06T10:57:59;8.27;;;5.30;;
16286;SDS011;8251;53.568;10.018;2024-03-06T11:00:26;8.03;;;5.23;;
16286;SDS011;8251;53.568;10.018;2024-03-06T11:02:54;9.67;;;5.00;;
16286;SDS011;8251;53.568;10.018;2024-03-06T11:05:22;8.93;;;5.33;;
16286;SDS011;8251;53.568;10.018;2024-03-06T11:07:50;7.03;;;4.90;;
16286;SDS011;8251;53.568;10.018;2024-03-06T11:10:29;9.73;;;5.30;;
16286;SDS011;8251;53.568;10.018;2024-03-06T11:12:56;8.90;;;4.63;;
16286;SDS011;8251;53.568;10.018;2024-03-06T11:15:24;7.97;;;5.53;;
16286;SDS011;8251;53.568;10.018;2024-03-06T11:17:50;7.27;;;4.90;;
16286;SDS011;8251;53.568;10.018;2024-03-06T11:20:20;8.30;;;4.90;;
16286;SDS011;8251;53.568;10.018;2024-03-06T11:23:08;8.23;;;5.00;;
16286;SDS011;8251;53.568;10.018;2024-03-06T11:28:26;9.43;;;5.93;;
16286;SDS011;8251;53.568;10.018;2024-03-06T11:30:57;9.27;;;5.03;;
16286;SDS011;8251;53.568;10.018;2024-03-06T11:33:28;8.10;;;5.43;;
16286;SDS011;8251;53.568;10.018;2024-03-06T11:36:14;9.73;;;5.27;;
16286;SDS011;8251;53.568;10.018;2024-03-06T11:38:47;7.77;;;5.43;;
16286;SDS011;8251;53.568;10.018;2024-03-06T11:41:19;10.93;;;5.00;;
16286;SDS011;8251;53.568;10.018;2024-03-06T11:43:48;10.67;;;5.20;;
16286;SDS011;8251;53.568;10.018;2024-03-06T11:46:18;8.10;;;4.87;;
16286;SDS011;8251;53.568;10.018;2024-03-06T11:48:51;15.37;;;5.60;;
16286;SDS011;8251;53.568;10.018;2024-03-06T11:51:19;8.33;;;5.43;;
16286;SDS011;8251;53.568;10.018;2024-03-06T11:53:50;7.40;;;5.60;;
16286;SDS011;8251;53.568;10.018;2024-03-06T11:56:18;8.07;;;5.53;;
16286;SDS011;8251;53.568;10.018;2024-03-06T11:58:46;9.30;;;5.17;;
16286;SDS011;8251;53.568;10.018;2024-03-06T12:01:13;8.17;;;5.37;;
16286;SDS011;8251;53.568;10.018;2024-03-06T12:03:41;7.57;;;5.07;;
16286;SDS011;8251;53.568;10.018;2024-03-06T12:06:09;7.80;;;4.90;;
16286;SDS011;8251;53.568;10.018;2024-03-06T12:08:36;7.97;;;4.93;;
16286;SDS011;8251;53.568;10.018;2024-03-06T12:11:06;10.00;;;5.27;;
16286;SDS011;8251;53.568;10.018;2024-03-06T12:13:33;7.70;;;5.53;;
16286;SDS011;8251;53.568;10.018;2024-03-06T12:16:04;8.13;;;4.80;;
16286;SDS011;8251;53.568;10.018;2024-03-06T12:18:32;6.57;;;4.60;;
16286;SDS011;8251;53.568;10.018;2024-03-06T12:21:00;7.20;;;4.83;;
16286;SDS011;8251;53.568;10.018;2024-03-06T12:23:28;13.00;;;5.53;;
16286;SDS011;8251;53.568;10.018;2024-03-06T12:26:07;7.20;;;5.23;;
16286;SDS011;8251;53.568;10.018;2024-03-06T12:28:35;7.40;;;5.17;;
16286;SDS011;8251;53.568;10.018;2024-03-06T12:31:02;6.73;;;4.37;;
16286;SDS011;8251;53.568;10.018;2024-03-06T12:33:29;7.90;;;5.30;;
16286;SDS011;8251;53.568;10.018;2024-03-06T12:36:03;9.30;;;5.20;;
16286;SDS011;8251;53.568;10.018;2024-03-06T12:38:35;7.23;;;4.93;;
16286;SDS011;8251;53.568;10.018;2024-03-06T12:41:02;10.90;;;5.20;;
16286;SDS011;8251;53.568;10.018;2024-03-06T12:43:32;9.13;;;5.43;;
16286;SDS011;8251;53.568;10.018;2024-03-06T12:45:59;9.47;;;5.43;;
16286;SDS011;8251;53.568;10.018;2024-03-06T12:48:27;10.67;;;4.47;;
16286;SDS011;8251;53.568;10.018;2024-03-06T12:50:55;6.37;;;4.50;;
16286;SDS011;8251;53.568;10.018;2024-03-06T12:53:29;8.23;;;5.03;;
16286;SDS011;8251;53.568;10.018;2024-03-06T12:55:56;10.80;;;5.33;;
16286;SDS011;8251;53.568;10.018;2024-03-06T12:58:23;7.77;;;4.83;;
16286;SDS011;8251;53.568;10.018;2024-03-06T13:00:52;9.47;;;5.60;;
16286;SDS011;8251;53.568;10.018;2024-03-06T13:03:19;7.53;;;5.30;;
16286;SDS011;8251;53.568;10.018;2024-03-06T13:05:46;7.23;;;4.57;;
16286;SDS011;8251;53.568;10.018;2024-03-06T13:08:13;6.17;;;4.53;;
16286;SDS011;8251;53.568;10.018;2024-03-06T13:10:40;7.47;;;4.80;;
16286;SDS011;8251;53.568;10.018;2024-03-06T13:13:07;8.13;;;5.03;;
16286;SDS011;8251;53.568;10.018;2024-03-06T13:15:34;8.13;;;4.90;;
16286;SDS011;8251;53.568;10.018;2024-03-06T13:18:03;11.07;;;4.83;;
16286;SDS011;8251;53.568;10.018;2024-03-06T13:20:30;10.10;;;5.03;;
16286;SDS011;8251;53.568;10.018;2024-03-06T13:22:57;9.03;;;5.50;;
16286;SDS011;8251;53.568;10.018;2024-03-06T13:25:24;11.10;;;5.47;;
16286;SDS011;8251;53.568;10.018;2024-03-06T13:27:51;8.53;;;4.43;;
16286;SDS011;8251;53.568;10.018;2024-03-06T13:30:19;8.00;;;4.50;;
16286;SDS011;8251;53.568;10.018;2024-03-06T13:32:46;8.53;;;4.53;;
16286;SDS011;8251;53.568;10.018;2024-03-06T13:35:14;9.40;;;5.57;;
16286;SDS011;8251;53.568;10.018;2024-03-06T13:37:41;8.37;;;5.47;;
16286;SDS011;8251;53.568;10.018;2024-03-06T13:40:09;7.50;;;4.90;;
16286;SDS011;8251;53.568;10.018;2024-03-06T13:42:38;8.43;;;4.60;;
16286;SDS011;8251;53.568;10.018;2024-03-06T13:45:06;8.70;;;5.33;;
16286;SDS011;8251;53.568;10.018;2024-03-06T13:47:36;7.03;;;5.00;;
16286;SDS011;8251;53.568;10.018;2024-03-06T13:50:04;7.47;;;5.03;;
16286;SDS011;8251;53.568;10.018;2024-03-06T13:52:34;7.47;;;5.07;;
16286;SDS011;8251;53.568;10.018;2024-03-06T13:55:01;8.70;;;4.40;;
16286;SDS011;8251;53.568;10.018;2024-03-06T13:57:29;8.13;;;5.23;;
16286;SDS011;8251;53.568;10.018;2024-03-06T13:59:58;9.13;;;4.97;;
16286;SDS011;8251;53.568;10.018;2024-03-06T14:02:25;7.00;;;4.87;;
16286;SDS011;8251;53.568;10.018;2024-03-06T14:04:52;5.80;;;4.60;;
16286;SDS011;8251;53.568;10.018;2024-03-06T14:07:19;7.53;;;4.57;;
16286;SDS011;8251;53.568;10.018;2024-03-06T14:09:47;7.80;;;4.47;;
16286;SDS011;8251;53.568;10.018;2024-03-06T14:12:15;6.17;;;4.00;;
16286;SDS011;8251;53.568;10.018;2024-03-06T14:14:42;11.83;;;6.13;;
16286;SDS011;8251;53.568;10.018;2024-03-06T14:17:10;8.97;;;4.33;;
16286;SDS011;8251;53.568;10.018;2024-03-06T14:19:37;7.77;;;4.23;;
16286;SDS011;8251;53.568;10.018;2024-03-06T14:22:06;9.00;;;4.00;;
16286;SDS011;8251;53.568;10.018;2024-03-06T14:24:33;6.40;;;4.83;;
16286;SDS011;8251;53.568;10.018;2024-03-06T14:27:02;10.00;;;4.10;;
16286;SDS011;8251;53.568;10.018;2024-03-06T14:29:29;7.20;;;4.77;;
16286;SDS011;8251;53.568;10.018;2024-03-06T14:31:56;6.20;;;3.93;;
16286;SDS011;8251;53.568;10.018;2024-03-06T14:34:23;8.13;;;4.70;;
16286;SDS011;8251;53.568;10.018;2024-03-06T14:36:50;8.80;;;4.43;;
16286;SDS011;8251;53.568;10.018;2024-03-06T14:39:17;6.03;;;4.40;;
16286;SDS011;8251;53.568;10.018;2024-03-06T14:41:47;10.17;;;4.63;;
16286;SDS011;8251;53.568;10.018;2024-03-06T14:44:15;5.57;;;3.93;;
16286;SDS011;8251;53.568;10.018;2024-03-06T14:46:42;8.80;;;4.50;;
16286;SDS011;8251;53.568;10.018;2024-03-06T14:49:09;8.53;;;4.57;;
16286;SDS011;8251;53.568;10.018;2024-03-06T14:51:36;11.00;;;4.40;;
16286;SDS011;8251;53.568;10.018;2024-03-06T14:54:03;6.30;;;4.83;;
16286;SDS011;8251;53.568;10.018;2024-03-06T14:56:30;5.90;;;4.07;;
16286;SDS011;8251;53.568;10.018;2024-03-06T14:58:57;8.33;;;4.33;;